Time;durP1;ratioP1;P1;durP2;ratioP2;P2;SDS_P1;SDS_P2;PMS_P1;PMS_P2;Temp;Humidity;BMP_temperature;BMP_pressure;BME280_temperature;BME280_humidity;BME280_pressure;Samples;Min_cycle;Max_cycle;Signal;HPM_P1;HPM_P2
2023/06/01 00:00:56;;;;;;;0.10;0.10;;;;;;;8.56;83.70;99311.94;5003093;28;20049;-73
2023/06/01 00:03:23;;;;;;;0.10;0.10;;;;;;;8.52;83.99;99308.13;5022560;28;20521;-74
2023/06/01 00:05:49;;;;;;;0.10;0.10;;;;;;;8.53;83.81;99303.53;5003768;28;20080;-73
2023/06/01 00:08:15;;;;;;;0.10;0.10;;;;;;;8.52;83.81;99305.41;5019789;28;20132;-74
2023/06/01 00:10:42;;;;;;;0.10;0.10;;;;;;;8.51;84.11;99303.78;5006840;28;20045;-74
2023/06/01 00:13:08;;;;;;;0.10;0.10;;;;;;;8.50;83.70;99293.97;5023026;28;20077;-73
2023/06/01 00:15:35;;;;;;;0.10;0.10;;;;;;;8.49;83.78;99298.56;5005374;28;20045;-74
2023/06/01 00:18:03;;;;;;;0.10;0.10;;;;;;;8.50;83.68;99304.88;4999909;28;20497;-74
2023/06/01 00:20:29;;;;;;;0.10;0.10;;;;;;;8.49;83.95;99300.47;5004859;28;20479;-73
2023/06/01 00:22:55;;;;;;;0.13;0.13;;;;;;;8.49;83.61;99290.38;4994766;28;20641;-73
2023/06/01 00:25:22;;;;;;;0.10;0.10;;;;;;;8.51;83.78;99301.06;5012961;28;20053;-74
2023/06/01 00:27:48;;;;;;;0.17;0.17;;;;;;;8.42;83.78;99292.59;5027957;28;20115;-73
2023/06/01 00:30:14;;;;;;;0.10;0.10;;;;;;;8.46;83.55;99298.31;4989373;28;20042;-73
2023/06/01 00:32:41;;;;;;;0.10;0.10;;;;;;;8.45;83.49;99297.47;5006322;28;20057;-73
2023/06/01 00:35:09;;;;;;;0.10;0.10;;;;;;;8.45;83.49;99293.97;5008705;28;20307;-73
2023/06/01 00:37:35;;;;;;;0.10;0.10;;;;;;;8.47;83.43;99289.03;5009533;28;20567;-73
2023/06/01 00:40:01;;;;;;;0.10;0.10;;;;;;;8.46;83.07;99290.94;5002726;28;20106;-74
2023/06/01 00:42:30;;;;;;;0.20;0.10;;;;;;;8.45;83.30;99289.31;5005704;28;20064;-73
2023/06/01 00:44:58;;;;;;;0.10;0.10;;;;;;;8.45;83.25;99292.03;5019934;28;20433;-73
2023/06/01 00:47:25;;;;;;;0.10;0.10;;;;;;;8.43;83.40;99294.22;4987962;28;20061;-74
2023/06/01 00:49:51;;;;;;;0.10;0.10;;;;;;;8.46;83.29;99292.88;5004114;28;20049;-73
2023/06/01 00:52:20;;;;;;;0.10;0.10;;;;;;;8.44;83.20;99284.16;5023722;28;20053;-73
2023/06/01 00:54:47;;;;;;;0.10;0.10;;;;;;;8.47;83.26;99286.31;5003066;28;20053;-72
2023/06/01 00:57:13;;;;;;;0.10;0.10;;;;;;;8.46;83.06;99290.13;5009131;28;20431;-73
2023/06/01 00:59:40;;;;;;;0.10;0.10;;;;;;;8.44;82.80;99284.94;5005939;28;20409;-73
2023/06/01 01:02:08;;;;;;;0.10;0.10;;;;;;;8.47;82.52;99289.84;5016327;28;20137;-73
2023/06/01 01:04:34;;;;;;;0.10;0.10;;;;;;;8.47;81.70;99289.03;4992112;28;20586;-73
2023/06/01 01:07:09;;;;;;;0.10;0.10;;;;;;;8.49;81.51;99290.38;5010153;28;20037;-72
2023/06/01 01:09:44;;;;;;;0.10;0.10;;;;;;;8.47;81.43;99289.84;5009588;28;20512;-72
2023/06/01 01:12:18;;;;;;;0.10;0.10;;;;;;;8.48;81.13;99285.22;4981638;28;20054;-73
2023/06/01 01:14:52;;;;;;;0.10;0.10;;;;;;;8.51;81.09;99287.44;5018951;28;20049;-73
2023/06/01 01:17:26;;;;;;;0.10;0.10;;;;;;;8.57;80.23;99288.25;5004416;28;20397;-73
2023/06/01 01:19:58;;;;;;;0.10;0.10;;;;;;;8.62;80.23;99286.34;5008153;28;20052;-73
2023/06/01 01:22:47;;;;;;;0.10;0.10;;;;;;;8.61;79.87;99289.31;5005345;28;20103;-73
2023/06/01 01:25:42;;;;;;;0.10;0.10;;;;;;;8.60;80.13;99288.53;5002731;28;20041;-73
2023/06/01 01:28:27;;;;;;;0.10;0.10;;;;;;;8.59;80.25;99276.00;5002234;28;20049;-73
2023/06/01 01:30:55;;;;;;;0.13;0.10;;;;;;;8.65;79.38;99280.34;4983617;28;20046;-73
2023/06/01 01:33:22;;;;;;;0.10;0.10;;;;;;;8.68;79.38;99276.25;4986150;28;20042;-73
2023/06/01 01:35:49;;;;;;;0.10;0.10;;;;;;;8.66;79.57;99272.97;5003737;28;20180;-73
2023/06/01 01:38:16;;;;;;;0.10;0.10;;;;;;;8.71;79.37;99263.97;5007615;28;20052;-73
2023/06/01 01:40:42;;;;;;;0.10;0.10;;;;;;;8.75;79.05;99263.13;5023466;28;20045;-73
2023/06/01 01:43:09;;;;;;;0.20;0.20;;;;;;;8.74;79.27;99263.41;5006686;28;20050;-73
2023/06/01 01:45:37;;;;;;;0.10;0.10;;;;;;;8.73;79.11;99264.50;4994190;28;20054;-73
2023/06/01 01:48:10;;;;;;;0.10;0.10;;;;;;;8.80;78.68;99275.94;4989151;28;20057;-73
2023/06/01 01:50:41;;;;;;;0.10;0.10;;;;;;;8.80;78.85;99276.75;5004117;28;20102;-73
2023/06/01 01:53:10;;;;;;;0.10;0.10;;;;;;;8.80;78.59;99276.75;5004789;28;20053;-73
2023/06/01 01:55:36;;;;;;;0.10;0.10;;;;;;;8.80;78.35;99275.94;4999579;28;20049;-72
2023/06/01 01:58:03;;;;;;;0.10;0.10;;;;;;;8.87;78.20;99287.38;5010152;28;20045;-73
2023/06/01 02:00:31;;;;;;;0.10;0.10;;;;;;;8.91;77.75;99283.03;5006935;28;20045;-73
2023/06/01 02:02:59;;;;;;;;;;;;;;;8.94;78.12;99276.19;5026018;28;20055;-72
2023/06/01 02:05:25;;;;;;;0.10;0.10;;;;;;;8.97;77.76;99278.34;5023885;28;20242;-73
2023/06/01 02:07:52;;;;;;;0.10;0.10;;;;;;;9.00;77.36;99263.34;4989789;28;20088;-73
2023/06/01 02:10:18;;;;;;;0.10;0.10;;;;;;;9.03;76.97;99265.50;5006495;28;20069;-73
2023/06/01 02:12:46;;;;;;;0.10;0.10;;;;;;;9.07;76.87;99264.69;5005069;28;20068;-73
2023/06/01 02:15:12;;;;;;;0.10;0.10;;;;;;;9.10;76.81;99270.69;5004976;28;20050;-73
2023/06/01 02:17:40;;;;;;;0.10;0.10;;;;;;;9.12;76.03;99272.03;5003946;28;20056;-73
2023/06/01 02:20:10;;;;;;;0.10;0.10;;;;;;;9.13;75.78;99276.41;5025562;28;20060;-73
2023/06/01 02:22:36;;;;;;;0.10;0.10;;;;;;;9.17;75.87;99284.84;5005675;28;20057;-74
2023/06/01 02:25:04;;;;;;;0.10;0.10;;;;;;;9.22;75.60;99284.81;5006903;28;20076;-73
2023/06/01 02:27:31;;;;;;;0.10;0.10;;;;;;;9.22;75.54;99277.47;4990555;28;20430;-73
2023/06/01 02:29:57;;;;;;;0.20;0.20;;;;;;;9.30;74.85;99286.16;5022374;28;20410;-73
2023/06/01 02:32:23;;;;;;;0.10;0.10;;;;;;;9.33;74.85;99291.88;5006529;28;20159;-73
2023/06/01 02:34:50;;;;;;;0.10;0.10;;;;;;;9.36;74.67;99299.50;5023522;28;20466;-74
2023/06/01 02:37:17;;;;;;;0.17;0.17;;;;;;;9.42;74.57;99303.03;4989888;28;20764;-73
2023/06/01 02:39:44;;;;;;;0.10;0.10;;;;;;;9.47;74.12;99297.53;4986823;28;20056;-74
2023/06/01 02:42:11;;;;;;;0.13;0.13;;;;;;;9.52;73.85;99299.44;5026362;28;20042;-73
2023/06/01 02:44:37;;;;;;;0.10;0.10;;;;;;;9.56;73.42;99302.44;5005423;28;20461;-74
2023/06/01 02:47:04;;;;;;;0.10;0.10;;;;;;;9.63;73.14;99295.56;5021990;28;20474;-73
2023/06/01 02:49:31;;;;;;;0.10;0.10;;;;;;;9.70;72.54;99306.19;5022375;28;20053;-74
2023/06/01 02:51:57;;;;;;;0.10;0.10;;;;;;;9.78;72.13;99304.78;4990585;28;20061;-73
2023/06/01 02:54:26;;;;;;;0.10;0.10;;;;;;;9.81;71.62;99297.91;5006078;28;20081;-73
2023/06/01 02:56:53;;;;;;;0.10;0.10;;;;;;;9.90;70.76;99309.91;5023108;28;20091;-73
2023/06/01 02:59:46;;;;;;;0.10;0.10;;;;;;;9.98;70.48;99316.69;5005799;28;20046;-73
2023/06/01 03:02:12;;;;;;;0.20;0.20;;;;;;;10.01;70.19;99307.91;4987023;28;20071;-73
2023/06/01 03:04:39;;;;;;;0.10;0.10;;;;;;;10.09;69.92;99304.59;5023693;28;20050;-74
2023/06/01 03:07:08;;;;;;;0.10;0.10;;;;;;;10.15;69.12;99308.91;5008570;28;20034;-73
2023/06/01 03:09:47;;;;;;;0.20;0.20;;;;;;;10.24;68.82;99302.84;5004718;28;20425;-74
2023/06/01 03:12:32;;;;;;;0.15;0.15;;;;;;;10.30;68.55;99302.53;5021840;28;20088;-74
2023/06/01 03:14:58;;;;;;;0.10;0.10;;;;;;;10.38;67.90;99305.75;5024575;28;20046;-74
2023/06/01 03:17:25;;;;;;;0.20;0.20;;;;;;;10.44;67.18;99302.72;5003281;28;20064;-74
2023/06/01 03:19:51;;;;;;;0.20;0.20;;;;;;;10.55;67.10;99306.16;5009545;28;20099;-73
2023/06/01 03:22:22;;;;;;;0.10;0.10;;;;;;;10.60;66.60;99306.13;4988440;28;20420;-74
2023/06/01 03:24:50;;;;;;;0.13;0.13;;;;;;;10.68;66.02;99309.34;5025621;28;20106;-74
2023/06/01 03:27:23;;;;;;;0.10;0.10;;;;;;;10.73;65.94;99312.84;5003989;28;20573;-74
2023/06/01 03:29:53;;;;;;;0.15;0.15;;;;;;;10.76;65.51;99308.72;5004045;28;20050;-74
2023/06/01 03:32:24;;;;;;;0.20;0.20;;;;;;;10.85;64.96;99312.47;4972686;28;20049;-74
2023/06/01 03:34:54;;;;;;;0.20;0.20;;;;;;;10.92;64.69;99310.19;4989640;28;20051;-74
2023/06/01 03:37:22;;;;;;;0.20;0.20;;;;;;;11.03;63.49;99310.09;5004756;28;20142;-73
2023/06/01 03:39:50;;;;;;;0.10;0.10;;;;;;;11.11;62.97;99323.16;5005555;28;20050;-74
2023/06/01 03:42:19;;;;;;;0.10;0.10;;;;;;;11.19;62.93;99318.97;5006310;28;20077;-75
2023/06/01 03:44:47;;;;;;;0.20;0.20;;;;;;;11.27;63.13;99321.03;5022355;28;20584;-74
2023/06/01 03:47:16;;;;;;;0.20;0.20;;;;;;;11.37;62.77;99317.38;5006753;28;20317;-73
2023/06/01 03:49:45;;;;;;;0.20;0.20;;;;;;;11.45;62.48;99316.75;5002936;28;20061;-73
2023/06/01 03:52:11;;;;;;;0.10;0.10;;;;;;;11.55;62.11;99315.78;4987558;28;20152;-73
2023/06/01 03:54:38;;;;;;;0.10;0.10;;;;;;;11.60;61.65;99310.25;4986051;28;20103;-73
2023/06/01 03:57:13;;;;;;;0.20;0.20;;;;;;;11.63;61.53;99301.47;5022410;28;20107;-73
2023/06/01 03:59:40;;;;;;;0.15;0.15;;;;;;;11.73;61.41;99307.91;5022410;28;20045;-73
2023/06/01 04:02:09;;;;;;;0.10;0.10;;;;;;;11.81;60.99;99304.50;5006104;28;20102;-73
2023/06/01 04:04:35;;;;;;;0.15;0.15;;;;;;;11.88;61.07;99307.69;4991737;28;20053;-73
2023/06/01 04:07:02;;;;;;;0.20;0.20;;;;;;;11.96;60.51;99299.94;5025827;28;20049;-74
2023/06/01 04:09:29;;;;;;;0.10;0.10;;;;;;;12.05;60.29;99300.91;5019962;28;20136;-73
2023/06/01 04:11:56;;;;;;;0.20;0.20;;;;;;;12.14;59.19;99304.63;5001080;28;20141;-73
2023/06/01 04:14:23;;;;;;;0.10;0.10;;;;;;;12.23;58.85;99301.19;5022857;28;20478;-73
2023/06/01 04:16:50;;;;;;;0.13;0.13;;;;;;;12.30;57.66;99296.94;5004119;28;20303;-73
2023/06/01 04:19:16;;;;;;;0.20;0.20;;;;;;;12.42;57.37;99309.38;5004057;28;20050;-73
2023/06/01 04:21:43;;;;;;;0.10;0.10;;;;;;;12.51;57.16;99302.13;5005113;28;20150;-73
2023/06/01 04:24:11;;;;;;;0.20;0.20;;;;;;;12.62;56.17;99310.97;4987020;28;20362;-73
2023/06/01 04:26:38;;;;;;;0.20;0.20;;;;;;;12.70;56.53;99304.00;4999923;28;20461;-74
2023/06/01 04:29:05;;;;;;;0.20;0.20;;;;;;;12.77;56.46;99307.97;4988086;28;20373;-73
2023/06/01 04:31:34;;;;;;;0.20;0.20;;;;;;;12.81;56.41;99305.44;5003793;28;20095;-73
2023/06/01 04:34:01;;;;;;;0.20;0.20;;;;;;;12.84;56.50;99299.34;5003872;28;20484;-73
2023/06/01 04:36:29;;;;;;;0.20;0.20;;;;;;;12.87;56.52;99297.91;4989276;28;20049;-73
2023/06/01 04:38:58;;;;;;;0.20;0.20;;;;;;;12.93;56.93;99296.72;5002714;28;20045;-73
2023/06/01 04:41:26;;;;;;;0.20;0.20;;;;;;;13.02;56.55;99296.84;4989379;28;20516;-74
2023/06/01 04:43:53;;;;;;;0.20;0.20;;;;;;;13.09;56.80;99293.69;5021597;28;20049;-73
2023/06/01 04:46:22;;;;;;;0.20;0.20;;;;;;;13.18;56.20;99300.91;4986542;28;20055;-73
2023/06/01 04:48:55;;;;;;;0.20;0.20;;;;;;;13.27;56.19;99292.78;5003197;28;20068;-73
2023/06/01 04:51:21;;;;;;;0.10;0.10;;;;;;;13.36;55.93;99286.59;5022680;28;20050;-73
2023/06/01 04:53:52;;;;;;;0.20;0.20;;;;;;;13.42;55.64;99286.13;4971314;28;20456;-74
2023/06/01 04:56:20;;;;;;;0.20;0.20;;;;;;;13.58;55.42;99283.94;4992252;28;20087;-73
2023/06/01 04:58:49;;;;;;;0.10;0.10;;;;;;;13.61;54.90;99275.06;5004030;28;20064;-73
2023/06/01 05:01:15;;;;;;;0.20;0.20;;;;;;;13.73;54.49;99281.97;5023149;28;20147;-73
2023/06/01 05:03:44;;;;;;;0.20;0.20;;;;;;;13.79;54.22;99283.47;5004557;28;20094;-73
2023/06/01 05:06:12;;;;;;;1.55;0.20;;;;;;;13.86;53.43;99283.06;5003339;28;20060;-73
2023/06/01 05:08:40;;;;;;;0.17;0.17;;;;;;;13.93;52.87;99285.38;4986892;28;20076;-74
2023/06/01 05:11:07;;;;;;;0.20;0.20;;;;;;;14.02;52.73;99286.28;5003466;28;20072;-73
2023/06/01 05:13:35;;;;;;;0.20;0.20;;;;;;;14.07;52.46;99286.16;4972404;28;20424;-73
2023/06/01 05:16:02;;;;;;;0.30;0.30;;;;;;;14.18;52.67;99289.47;5024185;28;20144;-74
2023/06/01 05:18:28;;;;;;;0.20;0.20;;;;;;;14.24;52.40;99284.66;5022644;28;20061;-74
2023/06/01 05:20:54;;;;;;;0.20;0.20;;;;;;;14.28;52.27;99280.97;5006151;28;20063;-73
2023/06/01 05:23:24;;;;;;;0.25;0.25;;;;;;;14.35;52.62;99275.03;5002937;28;20061;-73
2023/06/01 05:25:50;;;;;;;0.20;0.20;;;;;;;14.45;51.77;99277.53;4986656;28;20054;-73
2023/06/01 05:28:17;;;;;;;0.20;0.20;;;;;;;14.55;52.00;99279.22;5007597;28;20080;-73
2023/06/01 05:30:43;;;;;;;0.20;0.20;;;;;;;14.54;51.45;99277.59;5031742;28;20057;-73
2023/06/01 05:33:09;;;;;;;0.20;0.20;;;;;;;14.58;51.09;99278.59;5006254;28;20727;-73
2023/06/01 05:35:36;;;;;;;0.30;0.30;;;;;;;14.64;50.86;99283.94;4979662;28;20169;-73
2023/06/01 05:38:04;;;;;;;0.30;0.30;;;;;;;14.69;50.86;99284.63;4995318;28;20050;-73
2023/06/01 05:40:32;;;;;;;0.20;0.20;;;;;;;14.76;50.62;99275.16;5022588;28;20046;-73
2023/06/01 05:42:57;;;;;;;;;;;;;;;14.81;50.79;99286.81;5018771;28;20311;-73
2023/06/01 05:45:24;;;;;;;0.20;0.20;;;;;;;14.86;49.97;99283.13;4991213;28;19929;-73
2023/06/01 05:47:50;;;;;;;0.20;0.20;;;;;;;14.92;49.88;99292.06;4987247;28;20068;-73
2023/06/01 05:50:17;;;;;;;0.20;0.20;;;;;;;14.91;49.45;99287.69;5001491;28;20041;-74
2023/06/01 05:52:44;;;;;;;0.20;0.20;;;;;;;14.93;49.93;99283.50;5015702;28;20096;-73
2023/06/01 05:55:10;;;;;;;0.30;0.30;;;;;;;14.98;49.65;99290.78;5000413;28;20992;-74
2023/06/01 05:57:39;;;;;;;0.30;0.30;;;;;;;15.01;49.10;99292.94;5015372;28;20049;-73
2023/06/01 06:00:10;;;;;;;0.30;0.30;;;;;;;15.07;49.21;99293.59;5005020;28;20042;-73
2023/06/01 06:02:43;;;;;;;0.30;0.30;;;;;;;15.08;49.34;99281.47;5005424;28;20045;-73
2023/06/01 06:05:10;;;;;;;0.30;0.30;;;;;;;15.22;49.28;99295.94;5005481;28;20049;-73
2023/06/01 06:07:37;;;;;;;0.20;0.20;;;;;;;15.26;47.81;99296.09;5005661;28;20033;-73
2023/06/01 06:10:04;;;;;;;0.20;0.20;;;;;;;15.38;48.51;99292.75;5023917;28;20318;-74
2023/06/01 06:12:31;;;;;;;0.30;0.30;;;;;;;15.46;48.36;99286.44;5012603;28;20311;-73
2023/06/01 06:14:58;;;;;;;0.30;0.30;;;;;;;15.55;48.04;99294.72;5021898;28;20041;-74
2023/06/01 06:17:25;;;;;;;0.30;0.30;;;;;;;15.72;47.90;99285.69;5006987;28;20620;-74
2023/06/01 06:19:51;;;;;;;0.30;0.30;;;;;;;15.90;47.72;99292.03;5022365;28;20472;-74
2023/06/01 06:22:17;;;;;;;0.30;0.30;;;;;;;15.99;47.33;99283.78;5024492;28;20041;-75
2023/06/01 06:24:45;;;;;;;0.30;0.30;;;;;;;16.07;46.86;99280.22;5028244;28;20053;-74
2023/06/01 06:27:11;;;;;;;;;;;;;;;16.15;46.22;99295.16;4994762;28;20045;-75
2023/06/01 06:29:37;;;;;;;0.25;0.25;;;;;;;16.27;45.84;99275.19;5025106;28;19986;-74
2023/06/01 06:32:06;;;;;;;0.20;0.20;;;;;;;16.35;45.26;99274.38;5025582;28;20123;-75
2023/06/01 06:34:35;;;;;;;0.30;0.30;;;;;;;16.37;45.18;99280.38;5023526;28;20570;-75
2023/06/01 06:37:03;;;;;;;0.40;0.40;;;;;;;16.53;45.16;99277.88;5021090;28;20038;-73
2023/06/01 06:39:31;;;;;;;0.30;0.30;;;;;;;16.63;45.12;99274.00;5022445;28;20056;-73
2023/06/01 06:41:59;;;;;;;0.30;0.30;;;;;;;16.78;44.72;99269.88;5015688;28;20049;-73
2023/06/01 06:44:26;;;;;;;0.30;0.30;;;;;;;16.84;44.51;99274.06;5014967;28;20491;-73
2023/06/01 06:46:52;;;;;;;0.30;0.30;;;;;;;16.89;44.24;99269.53;5016128;28;20107;-73
2023/06/01 06:49:20;;;;;;;0.40;0.40;;;;;;;17.05;43.77;99269.81;5018450;28;20072;-74
2023/06/01 06:51:46;;;;;;;0.30;0.30;;;;;;;17.10;43.07;99275.97;5001454;28;20104;-73
2023/06/01 06:54:12;;;;;;;0.30;0.30;;;;;;;17.14;42.84;99260.34;5021829;28;20051;-73
2023/06/01 06:56:39;;;;;;;0.30;0.30;;;;;;;17.24;43.07;99258.34;5025696;28;20045;-74
2023/06/01 06:59:05;;;;;;;0.30;0.30;;;;;;;17.35;42.95;99259.59;5013151;28;20551;-74
2023/06/01 07:01:35;;;;;;;0.40;0.40;;;;;;;17.41;42.92;99263.00;5007904;28;20045;-73
2023/06/01 07:04:01;;;;;;;0.40;0.40;;;;;;;17.48;41.36;99263.25;5008927;28;20047;-73
2023/06/01 07:06:29;;;;;;;0.30;0.30;;;;;;;17.40;41.78;99255.81;5006992;28;20042;-73
2023/06/01 07:08:56;;;;;;;0.30;0.30;;;;;;;17.42;42.04;99248.81;5024621;28;20096;-73
2023/06/01 07:11:23;;;;;;;0.30;0.30;;;;;;;17.54;42.20;99245.34;5007213;28;20052;-73
2023/06/01 07:13:50;;;;;;;0.30;0.30;;;;;;;17.70;42.43;99244.75;5025831;28;20049;-73
2023/06/01 07:16:16;;;;;;;0.30;0.30;;;;;;;17.88;40.74;99239.88;5027610;28;20107;-74
2023/06/01 07:18:45;;;;;;;0.40;0.40;;;;;;;17.92;40.67;99238.06;5021840;28;20052;-73
2023/06/01 07:21:11;;;;;;;0.40;0.40;;;;;;;18.03;40.90;99246.81;5023528;28;20041;-73
2023/06/01 07:23:43;;;;;;;0.40;0.40;;;;;;;18.04;40.60;99236.53;4994454;28;20048;-73
2023/06/01 07:26:10;;;;;;;0.40;0.40;;;;;;;18.17;40.81;99229.09;5005678;28;20050;-73
2023/06/01 07:28:36;;;;;;;0.40;0.40;;;;;;;18.24;39.67;99240.44;5005580;28;20417;-73
2023/06/01 07:31:03;;;;;;;0.40;0.40;;;;;;;18.23;39.61;99228.53;5023090;28;20096;-73
2023/06/01 07:33:29;;;;;;;0.40;0.40;;;;;;;18.37;38.89;99230.19;5022084;28;20438;-73
2023/06/01 07:35:58;;;;;;;0.40;0.40;;;;;;;18.47;39.41;99223.41;5006039;28;20053;-73
2023/06/01 07:38:24;;;;;;;0.40;0.40;;;;;;;18.54;39.01;99226.44;5021423;28;20045;-72
2023/06/01 07:40:53;;;;;;;0.30;0.30;;;;;;;18.54;38.64;99218.16;5004982;28;20053;-73
2023/06/01 07:43:19;;;;;;;0.40;0.40;;;;;;;18.68;38.96;99215.88;5021951;28;20069;-73
2023/06/01 07:45:45;;;;;;;0.40;0.40;;;;;;;19.01;39.27;99222.50;5020674;28;20103;-73
2023/06/01 07:48:11;;;;;;;0.40;0.40;;;;;;;19.12;37.98;99220.06;4986286;28;20683;-73
2023/06/01 07:50:38;;;;;;;0.40;0.40;;;;;;;19.16;37.98;99211.88;5006258;28;20170;-73
2023/06/01 07:53:04;;;;;;;0.40;0.40;;;;;;;19.38;37.24;99216.13;5021853;28;20100;-73
2023/06/01 07:55:30;;;;;;;0.43;0.43;;;;;;;19.36;37.30;99210.13;5004700;28;20051;-73
2023/06/01 07:57:58;;;;;;;0.40;0.40;;;;;;;19.36;37.05;99227.56;5003820;28;20045;-73
2023/06/01 08:00:26;;;;;;;0.40;0.40;;;;;;;19.27;36.43;99213.81;5017769;28;20041;-73
2023/06/01 08:02:52;;;;;;;0.40;0.40;;;;;;;19.26;36.67;99198.34;5027135;28;20041;-73
2023/06/01 08:05:19;;;;;;;0.40;0.40;;;;;;;19.45;36.34;99204.44;5017351;28;20088;-73
2023/06/01 08:07:48;;;;;;;0.50;0.50;;;;;;;19.50;36.52;99204.19;5026652;28;20300;-73
2023/06/01 08:10:15;;;;;;;0.40;0.40;;;;;;;19.81;35.60;99198.00;5023959;28;20052;-73
2023/06/01 08:12:42;;;;;;;0.50;0.50;;;;;;;20.02;35.49;99193.47;4992357;28;20402;-73
2023/06/01 08:15:11;;;;;;;0.50;0.50;;;;;;;20.29;34.78;99196.53;5007008;28;20473;-73
2023/06/01 08:17:38;;;;;;;0.40;0.40;;;;;;;20.54;33.86;99194.44;4986627;28;20131;-73
2023/06/01 08:20:10;;;;;;;0.40;0.40;;;;;;;20.80;34.33;99190.31;4987486;28;20460;-73
2023/06/01 08:22:37;;;;;;;0.40;0.40;;;;;;;20.86;34.12;99199.22;5022804;28;20116;-73
2023/06/01 08:25:05;;;;;;;0.50;0.50;;;;;;;21.07;32.99;99194.19;5008601;28;20142;-73
2023/06/01 08:27:31;;;;;;;0.50;0.50;;;;;;;21.23;32.75;99185.81;5022917;28;20148;-73
2023/06/01 08:29:58;;;;;;;0.50;0.50;;;;;;;21.37;32.19;99196.44;5022414;28;20048;-72
2023/06/01 08:32:29;;;;;;;0.50;0.50;;;;;;;20.99;32.19;99181.28;4989617;28;20056;-73
2023/06/01 08:34:56;;;;;;;0.40;0.40;;;;;;;20.90;32.46;99183.44;5021406;28;20059;-73
2023/06/01 08:37:22;;;;;;;0.47;0.47;;;;;;;21.02;32.31;99207.56;4973012;28;20050;-72
2023/06/01 08:39:48;;;;;;;1.98;0.50;;;;;;;21.14;31.94;99210.22;5002352;28;20049;-73
2023/06/01 08:42:26;;;;;;;0.50;0.50;;;;;;;21.30;31.51;99193.50;4989406;28;20825;-74
2023/06/01 08:44:58;;;;;;;0.55;0.55;;;;;;;21.27;31.86;99185.09;4989333;28;20056;-73
2023/06/01 08:47:31;;;;;;;0.50;0.50;;;;;;;21.50;31.79;99176.84;4997625;28;20096;-73
2023/06/01 08:49:59;;;;;;;0.60;0.60;;;;;;;21.88;31.68;99178.09;5002878;28;20124;-74
2023/06/01 08:52:31;;;;;;;0.60;0.60;;;;;;;22.26;30.84;99192.34;4653404;28;10000221;-73
2023/06/01 08:54:58;;;;;;;0.57;0.57;;;;;;;22.41;29.96;99203.75;4999461;28;20115;-73
2023/06/01 08:57:24;;;;;;;;;;;;;;;22.03;30.47;99175.59;5019434;28;20196;-74
2023/06/01 08:59:51;;;;;;;0.60;0.60;;;;;;;22.09;30.29;99197.19;4989354;28;19990;-74
2023/06/01 09:02:17;;;;;;;0.60;0.60;;;;;;;22.26;30.76;99172.03;4997035;28;20391;-73
2023/06/01 09:04:45;;;;;;;0.60;0.60;;;;;;;22.46;29.50;99168.00;5017071;28;20061;-74
2023/06/01 09:07:12;;;;;;;0.60;0.60;;;;;;;22.56;29.67;99179.75;5000949;28;20049;-73
2023/06/01 09:09:39;;;;;;;;;;;;;;;22.58;29.51;99166.25;5019723;28;20617;-73
2023/06/01 09:12:23;;;;;;;0.50;0.50;;;;;;;22.78;29.42;99153.06;5015800;28;19929;-73
2023/06/01 09:14:50;;;;;;;0.60;0.60;;;;;;;23.13;28.67;99156.78;5018428;28;20049;-73
2023/06/01 09:17:22;;;;;;;0.60;0.60;;;;;;;23.24;27.59;99163.28;5032311;28;20049;-73
2023/06/01 09:19:53;;;;;;;0.70;0.70;;;;;;;22.88;27.85;99152.44;5007713;28;20050;-73
2023/06/01 09:22:19;;;;;;;0.63;0.63;;;;;;;22.90;28.07;99152.88;5032286;28;20042;-73
2023/06/01 09:24:56;;;;;;;0.60;0.60;;;;;;;22.93;27.86;99143.75;5003152;28;20096;-73
2023/06/01 09:27:22;;;;;;;;;;;;;;;23.16;27.43;99153.22;5019401;28;20135;-74
2023/06/01 09:29:53;;;;;;;0.73;0.73;;;;;;;23.34;27.56;99162.69;5022346;28;19960;-73
2023/06/01 09:32:21;;;;;;;0.60;0.60;;;;;;;23.54;27.30;99145.78;5006589;28;20053;-73
2023/06/01 09:34:47;;;;;;;0.70;0.70;;;;;;;23.48;27.40;99147.31;5004848;28;20144;-73
2023/06/01 09:37:16;;;;;;;0.70;0.70;;;;;;;23.38;27.01;99148.78;5022735;28;20060;-73
2023/06/01 09:39:43;;;;;;;0.70;0.70;;;;;;;23.35;27.16;99157.91;5022139;28;20399;-74
2023/06/01 09:42:09;;;;;;;0.70;0.70;;;;;;;23.80;26.67;99144.13;5020690;28;20179;-74
2023/06/01 09:44:37;;;;;;;0.70;0.70;;;;;;;24.29;26.27;99152.66;5021452;28;20045;-74
2023/06/01 09:47:03;;;;;;;;;;;;;;;24.50;26.26;99144.44;5003817;28;20406;-74
2023/06/01 09:49:32;;;;;;;0.70;0.70;;;;;;;24.89;26.03;99148.00;5023366;28;20062;-74
2023/06/01 09:52:14;;;;;;;0.70;0.70;;;;;;;25.05;25.74;99151.31;5019328;28;20136;-74
2023/06/01 09:54:44;;;;;;;0.80;0.80;;;;;;;25.21;24.96;99161.38;5019422;28;20172;-73
2023/06/01 09:57:12;;;;;;;0.80;0.80;;;;;;;25.35;24.25;99141.06;5019986;28;20111;-73
2023/06/01 09:59:40;;;;;;;0.90;0.90;;;;;;;24.95;24.62;99146.44;5024864;28;20048;-73
2023/06/01 10:02:11;;;;;;;0.80;0.80;;;;;;;24.86;25.07;99149.56;5022813;28;20100;-73
2023/06/01 10:04:40;;;;;;;0.80;0.80;;;;;;;25.01;24.26;99149.66;5025623;28;20049;-73
2023/06/01 10:07:08;;;;;;;0.80;0.80;;;;;;;25.09;24.53;99142.13;4991908;28;20088;-73
2023/06/01 10:09:38;;;;;;;0.80;0.80;;;;;;;25.43;24.29;99145.53;5004878;28;20084;-73
2023/06/01 10:12:08;;;;;;;0.90;0.90;;;;;;;25.67;23.73;99142.47;5026990;28;20517;-74
2023/06/01 10:14:38;;;;;;;0.90;0.90;;;;;;;25.41;23.67;99149.91;5026022;28;20053;-73
2023/06/01 10:17:05;;;;;;;0.90;0.90;;;;;;;24.64;24.60;99157.75;4993483;28;20046;-73
2023/06/01 10:19:31;;;;;;;0.90;0.90;;;;;;;24.87;24.06;99153.19;5025932;28;20049;-73
2023/06/01 10:21:59;;;;;;;0.90;0.90;;;;;;;24.99;24.30;99133.28;4991109;28;20437;-73
2023/06/01 10:24:26;;;;;;;0.90;0.90;;;;;;;25.19;24.33;99133.78;5025356;28;20046;-72
2023/06/01 10:27:09;;;;;;;0.90;0.90;;;;;;;25.97;23.11;99147.75;5009940;28;20041;-73
2023/06/01 10:29:37;;;;;;;0.90;0.90;;;;;;;26.38;22.63;99123.44;5026978;28;20041;-72
2023/06/01 10:32:04;;;;;;;1.00;1.00;;;;;;;26.85;22.15;99129.03;5037208;28;20049;-73
2023/06/01 10:34:38;;;;;;;0.98;0.98;;;;;;;26.82;22.16;99135.44;5012248;28;20045;-72
2023/06/01 10:37:15;;;;;;;1.10;1.10;;;;;;;27.28;21.84;99123.34;5025433;28;20073;-72
2023/06/01 10:39:42;;;;;;;1.00;1.00;;;;;;;27.80;20.77;99112.75;4977155;28;20060;-73
2023/06/01 10:42:37;;;;;;;1.00;1.00;;;;;;;27.39;20.01;99134.53;5005145;28;20539;-73
2023/06/01 10:45:07;;;;;;;1.00;1.00;;;;;;;26.73;21.48;99117.03;5021655;28;20092;-73
2023/06/01 10:47:46;;;;;;;0.60;0.60;;;;;;;25.97;22.36;99124.56;5024061;28;20085;-72
2023/06/01 10:50:16;;;;;;;1.10;1.10;;;;;;;26.13;22.56;99112.97;5025459;28;20726;-73
2023/06/01 10:52:42;;;;;;;1.10;1.10;;;;;;;26.76;21.91;99116.22;4971791;28;20045;-73
2023/06/01 10:55:26;;;;;;;1.00;1.00;;;;;;;26.75;21.87;99103.41;5007507;28;20052;-74
2023/06/01 10:58:25;;;;;;;1.30;1.20;;;;;;;27.31;21.64;99118.94;5022614;28;20049;-73
2023/06/01 11:00:56;;;;;;;1.10;1.10;;;;;;;27.53;21.14;99130.94;5028488;28;20050;-73
2023/06/01 11:03:45;;;;;;;1.23;1.20;;;;;;;27.91;21.31;99116.31;5010865;28;20041;-73
2023/06/01 11:06:27;;;;;;;1.10;1.10;;;;;;;27.73;20.48;99124.81;4994827;28;20042;-73
2023/06/01 11:08:56;;;;;;;1.10;1.10;;;;;;;27.29;21.35;99119.34;5004674;28;20060;-73
2023/06/01 11:11:23;;;;;;;1.10;1.10;;;;;;;27.48;21.05;99131.34;5022113;28;20513;-73
2023/06/01 11:14:11;;;;;;;1.10;1.10;;;;;;;27.52;20.80;99115.31;5026619;28;20123;-73
2023/06/01 11:16:38;;;;;;;1.10;1.10;;;;;;;27.54;20.53;99128.91;5008190;28;20053;-73
2023/06/01 11:19:06;;;;;;;1.10;1.10;;;;;;;27.15;21.00;99110.97;4992035;28;20045;-73
2023/06/01 11:21:39;;;;;;;1.10;1.10;;;;;;;27.43;21.03;99117.69;5020514;28;20505;-72
2023/06/01 11:24:08;;;;;;;1.13;1.13;;;;;;;27.76;20.84;99117.59;5026408;28;20053;-72
2023/06/01 11:26:38;;;;;;;1.10;1.10;;;;;;;28.22;20.62;99108.13;5028006;28;20540;-72
2023/06/01 11:29:06;;;;;;;1.10;1.10;;;;;;;27.97;20.42;99105.44;4990764;28;20041;-73
2023/06/01 11:31:39;;;;;;;1.17;1.17;;;;;;;28.30;20.47;99104.03;5006642;28;20445;-74
2023/06/01 11:34:06;;;;;;;1.20;1.20;;;;;;;28.93;19.59;99107.94;5006411;28;20420;-73
2023/06/01 11:36:38;;;;;;;1.20;1.20;;;;;;;29.00;19.16;99107.84;5022768;28;20068;-74
2023/06/01 11:39:08;;;;;;;1.20;1.20;;;;;;;28.55;19.79;99114.28;5005024;28;20056;-73
2023/06/01 11:41:35;;;;;;;1.15;1.10;;;;;;;28.51;19.81;99105.09;4989095;28;20215;-73
2023/06/01 11:44:01;;;;;;;1.30;1.20;;;;;;;28.74;19.41;99095.22;4972324;28;20054;-73